createdAt,value
2018-03-30T00:01:27.650Z,99.90
2018-03-30T00:03:55.286Z,99.90
2018-03-30T00:06:22.936Z,99.90
2018-03-30T00:08:50.592Z,99.90
2018-03-30T00:11:23.750Z,99.90
2018-03-30T00:13:51.395Z,99.90
2018-03-30T00:16:19.049Z,99.90
2018-03-30T00:18:46.676Z,99.90
2018-03-30T00:21:14.338Z,99.90
2018-03-30T00:23:41.996Z,99.90
2018-03-30T00:26:09.664Z,99.90
2018-03-30T00:28:37.982Z,99.90
2018-03-30T00:31:05.601Z,99.90
2018-03-30T00:33:33.989Z,99.90
2018-03-30T00:36:01.649Z,99.90
2018-03-30T00:38:30.086Z,99.90
2018-03-30T00:40:57.771Z,99.90
2018-03-30T00:43:25.440Z,99.90
2018-03-30T00:45:53.820Z,99.90
2018-03-30T00:48:21.449Z,99.90
2018-03-30T00:50:49.120Z,99.90
2018-03-30T00:53:28.442Z,99.90
2018-03-30T00:55:56.118Z,99.90
2018-03-30T00:58:23.779Z,99.90
2018-03-30T01:00:51.630Z,99.90
2018-03-30T01:03:19.290Z,99.90
2018-03-30T01:05:46.904Z,99.90
2018-03-30T01:08:15.351Z,99.90
2018-03-30T01:10:42.968Z,99.90
2018-03-30T01:13:10.906Z,99.90
2018-03-30T01:15:38.522Z,99.90
2018-03-30T01:18:06.140Z,99.90
2018-03-30T01:20:33.806Z,99.90
2018-03-30T01:23:01.492Z,99.90
2018-03-30T01:25:29.168Z,99.90
2018-03-30T01:27:56.790Z,99.90
2018-03-30T01:30:24.453Z,99.90
2018-03-30T01:32:52.235Z,99.90
2018-03-30T01:35:19.884Z,99.90
2018-03-30T01:37:48.405Z,99.90
2018-03-30T01:40:16.849Z,99.90
2018-03-30T01:42:44.469Z,99.90
2018-03-30T01:45:12.860Z,99.90
2018-03-30T01:47:40.517Z,99.90
2018-03-30T01:50:08.147Z,99.90
2018-03-30T01:52:35.816Z,99.90
2018-03-30T01:55:04.249Z,99.90
2018-03-30T01:57:31.948Z,99.90
2018-03-30T01:59:59.612Z,99.90
2018-03-30T02:02:27.274Z,99.90
2018-03-30T02:04:54.938Z,99.90
2018-03-30T02:07:23.541Z,99.90
2018-03-30T02:09:51.179Z,99.90
2018-03-30T02:12:18.838Z,99.90
2018-03-30T02:14:47.225Z,99.90
2018-03-30T02:17:15.691Z,99.90
2018-03-30T02:19:44.079Z,99.90
2018-03-30T02:22:12.149Z,99.90
2018-03-30T02:24:39.773Z,99.90
2018-03-30T02:27:07.523Z,99.90
2018-03-30T02:29:35.744Z,99.90
2018-03-30T02:32:03.419Z,99.90
2018-03-30T02:34:31.045Z,99.90
2018-03-30T02:36:58.804Z,99.90
2018-03-30T02:39:26.470Z,99.90
2018-03-30T02:41:54.096Z,99.90
2018-03-30T02:44:21.863Z,99.90
2018-03-30T02:46:50.177Z,99.90
2018-03-30T02:49:18.604Z,99.90
2018-03-30T02:51:46.226Z,99.90
2018-03-30T02:54:13.906Z,99.90
2018-03-30T02:56:41.564Z,99.90
2018-03-30T02:59:09.980Z,99.90
2018-03-30T03:01:37.646Z,99.90
2018-03-30T03:04:05.266Z,99.90
2018-03-30T03:06:32.927Z,99.90
2018-03-30T03:09:00.551Z,99.90
2018-03-30T03:11:28.409Z,99.90
2018-03-30T03:13:56.037Z,99.90
2018-03-30T03:16:23.705Z,99.90
2018-03-30T03:18:51.337Z,99.90
2018-03-30T03:21:19.001Z,99.90
2018-03-30T03:23:46.644Z,99.90
2018-03-30T03:26:14.317Z,99.90
2018-03-30T03:28:42.593Z,99.90
2018-03-30T03:31:10.263Z,99.90
2018-03-30T03:33:37.925Z,99.90
2018-03-30T03:36:05.554Z,99.90
2018-03-30T03:38:33.977Z,99.90
2018-03-30T03:41:01.592Z,99.90
2018-03-30T03:43:29.285Z,99.90
2018-03-30T03:45:57.689Z,99.90
2018-03-30T03:48:25.308Z,99.90
2018-03-30T03:50:52.968Z,99.90
2018-03-30T03:53:20.628Z,99.90
2018-03-30T03:55:48.253Z,99.90
2018-03-30T03:58:16.709Z,99.90
2018-03-30T04:00:44.329Z,99.90
2018-03-30T04:03:12.006Z,99.90
2018-03-30T04:05:39.818Z,99.90
2018-03-30T04:08:08.206Z,99.90
2018-03-30T04:10:36.616Z,99.90
2018-03-30T04:13:04.229Z,99.90
2018-03-30T04:15:31.882Z,99.90
2018-03-30T04:17:59.508Z,99.90
2018-03-30T04:20:27.183Z,99.90
2018-03-30T04:22:54.837Z,99.90
2018-03-30T04:25:22.457Z,99.90
2018-03-30T04:27:50.118Z,99.90
2018-03-30T04:30:17.732Z,99.90
2018-03-30T04:32:45.394Z,99.90
2018-03-30T04:35:13.030Z,99.90
2018-03-30T04:37:41.210Z,99.90
2018-03-30T04:40:13.444Z,99.90
2018-03-30T04:42:48.061Z,99.90
2018-03-30T04:45:16.578Z,99.90
2018-03-30T04:47:44.660Z,99.90
2018-03-30T04:50:12.280Z,99.90
2018-03-30T04:52:39.902Z,99.90
2018-03-30T04:55:11.470Z,99.90
2018-03-30T04:57:45.172Z,99.90
2018-03-30T05:00:13.148Z,99.90
2018-03-30T05:02:40.769Z,99.90
2018-03-30T05:05:08.591Z,99.90
2018-03-30T05:07:37.601Z,99.90
2018-03-30T05:10:05.261Z,99.90
2018-03-30T05:12:32.924Z,99.90
2018-03-30T05:15:02.767Z,99.90
2018-03-30T05:17:30.478Z,99.90
2018-03-30T05:19:59.404Z,99.90
2018-03-30T05:22:27.160Z,99.90
2018-03-30T05:24:54.784Z,99.90
2018-03-30T05:27:22.469Z,99.90
2018-03-30T05:29:50.127Z,99.90
2018-03-30T05:32:17.745Z,99.90
2018-03-30T05:34:46.134Z,99.90
2018-03-30T05:37:13.796Z,99.90
2018-03-30T05:39:41.476Z,99.90
2018-03-30T05:42:09.137Z,99.90
2018-03-30T05:44:36.754Z,99.90
2018-03-30T05:47:05.185Z,99.90
2018-03-30T05:49:32.949Z,99.90
2018-03-30T05:52:00.711Z,99.90
2018-03-30T05:54:28.474Z,99.90
2018-03-30T05:56:56.098Z,99.90
2018-03-30T05:59:23.760Z,99.90
2018-03-30T06:01:51.388Z,99.90
2018-03-30T06:04:19.831Z,99.90
2018-03-30T06:06:47.449Z,99.90
2018-03-30T06:09:17.109Z,99.90
2018-03-30T06:11:44.762Z,99.90
2018-03-30T06:14:12.424Z,99.90
2018-03-30T06:16:40.080Z,99.90
2018-03-30T06:19:08.330Z,99.90
2018-03-30T06:21:36.548Z,99.90
2018-03-30T06:24:07.082Z,99.90
2018-03-30T06:26:34.838Z,99.90
2018-03-30T06:29:02.601Z,99.90
2018-03-30T06:31:30.230Z,99.90
2018-03-30T06:33:57.900Z,99.90
2018-03-30T06:36:25.668Z,99.90
2018-03-30T06:38:53.322Z,99.90
2018-03-30T06:41:21.105Z,99.90
2018-03-30T06:43:48.729Z,99.90
2018-03-30T06:46:16.408Z,99.90
2018-03-30T06:48:45.551Z,99.90
2018-03-30T06:51:13.434Z,99.90
2018-03-30T06:53:42.413Z,99.90
2018-03-30T06:56:11.148Z,99.90
2018-03-30T06:58:39.134Z,99.90
2018-03-30T07:01:07.301Z,99.90
2018-03-30T07:03:35.160Z,99.90
2018-03-30T07:06:04.011Z,99.90
2018-03-30T07:08:34.714Z,99.90
2018-03-30T07:11:02.438Z,99.90
2018-03-30T07:13:30.105Z,99.90
2018-03-30T07:16:00.080Z,99.90
2018-03-30T07:18:28.708Z,99.90
2018-03-30T07:20:56.374Z,99.90
2018-03-30T07:23:24.216Z,99.90
2018-03-30T07:25:52.390Z,99.90
2018-03-30T07:28:20.136Z,99.90
2018-03-30T07:30:48.304Z,99.90
2018-03-30T07:33:16.110Z,99.90
2018-03-30T07:35:44.561Z,99.90
2018-03-30T07:38:12.589Z,99.90
2018-03-30T07:40:42.937Z,99.90
2018-03-30T07:43:10.616Z,99.90
2018-03-30T07:45:38.880Z,99.90
2018-03-30T07:48:07.325Z,99.90
2018-03-30T07:50:35.718Z,99.90
2018-03-30T07:53:03.514Z,99.90
2018-03-30T07:55:33.735Z,99.90
2018-03-30T07:58:01.702Z,99.90
2018-03-30T08:00:29.393Z,99.90
2018-03-30T08:03:00.453Z,99.90
2018-03-30T08:05:28.172Z,99.90
2018-03-30T08:07:57.735Z,99.90
2018-03-30T08:10:26.246Z,99.90
2018-03-30T08:12:53.900Z,99.90
2018-03-30T08:15:22.651Z,99.90
2018-03-30T08:17:50.313Z,99.90
2018-03-30T08:20:21.342Z,99.90
2018-03-30T08:22:49.029Z,99.90
2018-03-30T08:25:16.688Z,99.90
2018-03-30T08:27:46.285Z,99.90
2018-03-30T08:30:17.478Z,99.90
2018-03-30T08:32:45.149Z,99.90
2018-03-30T08:35:12.966Z,99.90
2018-03-30T08:37:40.726Z,99.90
2018-03-30T08:40:08.586Z,99.90
2018-03-30T08:42:36.956Z,99.90
2018-03-30T08:45:05.810Z,99.90
2018-03-30T08:47:34.264Z,99.90
2018-03-30T08:50:02.148Z,99.90
2018-03-30T08:52:30.693Z,99.90
2018-03-30T08:55:17.842Z,99.90
2018-03-30T08:57:46.464Z,99.90
2018-03-30T09:00:14.902Z,99.90
2018-03-30T09:02:42.554Z,99.90
2018-03-30T09:05:10.334Z,99.90
2018-03-30T09:07:38.796Z,99.90
2018-03-30T09:10:06.425Z,99.90
2018-03-30T09:12:34.623Z,99.90
2018-03-30T09:15:02.239Z,99.70
2018-03-30T09:17:30.618Z,99.40
2018-03-30T09:20:00.253Z,99.10
2018-03-30T09:22:29.401Z,99.40
2018-03-30T09:25:03.198Z,98.90
2018-03-30T09:27:35.213Z,97.80
2018-03-30T09:30:04.958Z,94.90
2018-03-30T09:32:32.847Z,96.10
2018-03-30T09:35:01.225Z,96.00
2018-03-30T09:37:29.641Z,96.00
2018-03-30T09:39:57.250Z,96.10
2018-03-30T09:42:26.189Z,94.70
2018-03-30T09:44:54.568Z,93.00
2018-03-30T09:47:22.216Z,93.30
2018-03-30T09:49:50.134Z,92.10
2018-03-30T09:52:17.776Z,93.50
2018-03-30T09:54:45.423Z,89.80
2018-03-30T09:57:13.040Z,91.80
2018-03-30T09:59:41.697Z,86.40
2018-03-30T10:02:09.342Z,85.80
2018-03-30T10:04:42.570Z,86.50
2018-03-30T10:07:10.218Z,84.60
2018-03-30T10:09:38.875Z,85.50
2018-03-30T10:12:06.520Z,85.40
2018-03-30T10:14:34.868Z,84.90
2018-03-30T10:17:02.512Z,85.50
2018-03-30T10:19:30.885Z,84.20
2018-03-30T10:21:59.117Z,82.80
2018-03-30T10:24:26.758Z,83.20
2018-03-30T10:26:54.587Z,86.10
2018-03-30T10:29:22.229Z,84.10
2018-03-30T10:31:49.877Z,79.20
2018-03-30T10:34:17.497Z,81.10
2018-03-30T10:36:45.189Z,81.60
2018-03-30T10:39:12.797Z,82.90
2018-03-30T10:41:40.409Z,80.10
2018-03-30T10:44:08.064Z,77.70
2018-03-30T10:46:35.704Z,80.40
2018-03-30T10:49:03.361Z,76.90
2018-03-30T10:51:30.979Z,79.90
2018-03-30T10:53:58.634Z,79.50
2018-03-30T10:56:26.849Z,81.70
2018-03-30T10:58:54.506Z,80.40
2018-03-30T11:01:22.120Z,79.50
2018-03-30T11:03:50.529Z,79.20
2018-03-30T11:06:18.166Z,77.90
2018-03-30T11:08:46.424Z,78.60
2018-03-30T11:11:14.171Z,79.50
2018-03-30T11:13:41.814Z,79.40
2018-03-30T11:16:09.418Z,78.30
2018-03-30T11:18:37.069Z,77.70
2018-03-30T11:21:04.672Z,74.40
2018-03-30T11:23:32.285Z,76.70
2018-03-30T11:26:00.221Z,77.30
2018-03-30T11:28:27.832Z,72.90
2018-03-30T11:30:55.459Z,75.30
2018-03-30T11:33:23.174Z,73.30
2018-03-30T11:35:51.549Z,75.70
2018-03-30T11:38:19.968Z,72.20
2018-03-30T11:40:47.633Z,72.00
2018-03-30T11:43:15.238Z,73.10
2018-03-30T11:45:42.897Z,73.30
2018-03-30T11:48:12.369Z,72.00
2018-03-30T11:50:40.024Z,72.00
2018-03-30T11:53:07.674Z,71.70
2018-03-30T11:55:35.802Z,73.00
2018-03-30T11:58:04.174Z,71.60
2018-03-30T12:00:32.601Z,74.20
2018-03-30T12:03:00.248Z,72.90
2018-03-30T12:05:27.869Z,73.70
2018-03-30T12:07:55.520Z,72.80
2018-03-30T12:10:23.904Z,75.40
2018-03-30T12:12:52.504Z,73.30
2018-03-30T12:15:21.025Z,72.60
2018-03-30T12:17:48.714Z,71.70
2018-03-30T12:20:16.362Z,74.30
2018-03-30T12:22:43.970Z,75.50
2018-03-30T12:25:11.617Z,65.20
2018-03-30T12:27:39.274Z,67.80
2018-03-30T12:30:07.227Z,68.20
2018-03-30T12:32:34.845Z,68.60
2018-03-30T12:35:02.506Z,67.80
2018-03-30T12:37:30.250Z,69.10
2018-03-30T12:39:57.894Z,67.30
2018-03-30T12:42:25.506Z,69.70
2018-03-30T12:44:54.798Z,66.50
2018-03-30T12:47:27.638Z,68.40
2018-03-30T12:49:57.110Z,69.30
2018-03-30T12:52:28.535Z,67.90
2018-03-30T12:54:56.184Z,67.40
2018-03-30T12:57:23.948Z,68.20
2018-03-30T12:59:52.632Z,67.60
2018-03-30T13:02:20.876Z,67.30
2018-03-30T13:04:49.341Z,69.90
2018-03-30T13:07:17.764Z,70.80
2018-03-30T13:09:45.376Z,70.80
2018-03-30T13:12:13.033Z,69.10
2018-03-30T13:14:40.641Z,69.10
2018-03-30T13:17:08.289Z,69.80
2018-03-30T13:19:35.905Z,69.60
2018-03-30T13:22:04.561Z,68.20
2018-03-30T13:24:32.212Z,66.80
2018-03-30T13:26:59.868Z,69.60
2018-03-30T13:29:27.526Z,66.70
2018-03-30T13:31:55.137Z,68.90
2018-03-30T13:34:22.789Z,69.00
2018-03-30T13:36:51.173Z,67.60
2018-03-30T13:39:19.561Z,68.70
2018-03-30T13:41:47.982Z,67.80
2018-03-30T13:44:15.654Z,66.90
2018-03-30T13:46:43.308Z,67.70
2018-03-30T13:49:11.011Z,68.50
2018-03-30T13:51:42.692Z,68.00
2018-03-30T13:54:10.394Z,69.00
2018-03-30T13:56:43.757Z,66.70
2018-03-30T13:59:11.596Z,68.30
2018-03-30T14:04:39.788Z,67.00
2018-03-30T14:07:28.502Z,68.20
2018-03-30T14:10:00.892Z,66.90
2018-03-30T14:12:33.246Z,69.00
2018-03-30T14:15:00.904Z,67.60
2018-03-30T14:17:28.544Z,69.00
2018-03-30T14:19:57.626Z,66.90
2018-03-30T14:22:35.821Z,68.50
2018-03-30T14:25:15.486Z,69.90
2018-03-30T14:27:45.661Z,65.00
2018-03-30T14:30:18.841Z,69.20
2018-03-30T14:32:49.257Z,68.50
2018-03-30T14:35:18.989Z,68.40
2018-03-30T14:37:51.036Z,69.30
2018-03-30T14:40:23.105Z,71.00
2018-03-30T14:42:57.325Z,70.40
2018-03-30T14:45:25.886Z,67.10
2018-03-30T14:47:54.427Z,68.60
2018-03-30T14:50:22.840Z,69.30
2018-03-30T14:55:59.514Z,63.90
2018-03-30T14:58:49.051Z,65.80
2018-03-30T15:01:26.622Z,66.50
2018-03-30T15:03:55.165Z,66.20
2018-03-30T15:06:35.453Z,67.40
2018-03-30T15:09:09.782Z,67.10
2018-03-30T15:11:38.926Z,66.20
2018-03-30T15:14:09.168Z,66.20
2018-03-30T15:16:58.406Z,65.50
2018-03-30T15:19:26.802Z,62.50
2018-03-30T15:22:18.163Z,64.60
2018-03-30T15:24:59.937Z,64.50
2018-03-30T15:27:38.195Z,62.70
2018-03-30T15:30:08.137Z,61.90
2018-03-30T15:32:56.670Z,62.70
2018-03-30T15:35:25.005Z,63.10
2018-03-30T15:37:56.106Z,63.10
2018-03-30T15:40:28.491Z,63.30
2018-03-30T15:43:17.341Z,62.60
2018-03-30T15:45:58.919Z,62.40
2018-03-30T15:48:27.352Z,61.80
2018-03-30T15:53:59.149Z,64.40
2018-03-30T15:56:28.256Z,64.20
2018-03-30T15:58:57.591Z,63.00
2018-03-30T16:01:25.338Z,65.00
2018-03-30T16:03:52.959Z,65.70
2018-03-30T16:06:20.626Z,66.20
2018-03-30T16:08:48.289Z,66.30
2018-03-30T16:11:50.132Z,65.30
2018-03-30T16:14:18.642Z,66.90
2018-03-30T16:16:46.316Z,65.80
2018-03-30T16:19:13.476Z,64.20
2018-03-30T16:21:40.696Z,64.20
2018-03-30T16:24:07.822Z,65.80
2018-03-30T16:26:36.128Z,66.70
2018-03-30T16:29:03.256Z,67.20
2018-03-30T16:31:30.408Z,66.60
2018-03-30T16:33:57.576Z,66.70
2018-03-30T16:36:24.701Z,66.90
2018-03-30T16:38:51.868Z,67.50
2018-03-30T16:41:19.616Z,67.10
2018-03-30T16:43:47.275Z,65.70
2018-03-30T16:46:14.722Z,68.00
2018-03-30T16:48:41.875Z,67.20
2018-03-30T16:51:09.047Z,68.80
2018-03-30T16:53:36.199Z,68.30
2018-03-30T16:56:03.355Z,68.70
2018-03-30T16:58:30.522Z,69.90
2018-03-30T17:00:58.409Z,70.30
2018-03-30T17:03:25.535Z,70.50
2018-03-30T17:05:53.075Z,72.10
2018-03-30T17:08:20.238Z,71.20
2018-03-30T17:10:48.121Z,73.50
2018-03-30T17:13:15.285Z,73.20
2018-03-30T17:15:42.399Z,75.40
2018-03-30T17:18:11.260Z,76.00
2018-03-30T17:20:38.386Z,75.00
2018-03-30T17:23:05.557Z,76.50
2018-03-30T17:25:32.986Z,76.90
2018-03-30T17:28:00.148Z,77.70
2018-03-30T17:30:27.500Z,78.30
2018-03-30T17:32:54.660Z,78.90
2018-03-30T17:35:21.921Z,79.80
2018-03-30T17:37:49.041Z,82.30
2018-03-30T17:40:16.261Z,83.40
2018-03-30T17:42:44.132Z,84.40
2018-03-30T17:45:11.302Z,83.30
2018-03-30T17:47:38.572Z,83.90
2018-03-30T17:50:06.392Z,85.30
2018-03-30T17:52:33.560Z,85.70
2018-03-30T17:55:00.726Z,86.30
2018-03-30T17:57:27.886Z,86.80
2018-03-30T17:59:55.054Z,86.90
2018-03-30T18:02:22.922Z,86.90
2018-03-30T18:04:50.060Z,87.50
2018-03-30T18:07:17.309Z,89.80
2018-03-30T18:09:44.469Z,89.80
2018-03-30T18:12:11.628Z,90.20
2018-03-30T18:14:39.561Z,90.80
2018-03-30T18:17:06.728Z,90.00
2018-03-30T18:19:34.001Z,91.20
2018-03-30T18:22:01.896Z,92.00
2018-03-30T18:24:29.022Z,92.00
2018-03-30T18:26:56.201Z,91.40
2018-03-30T18:29:23.362Z,92.10
2018-03-30T18:31:50.485Z,92.40
2018-03-30T18:34:17.645Z,92.60
2018-03-30T18:36:44.780Z,93.10
2018-03-30T18:39:11.941Z,92.60
2018-03-30T18:41:39.103Z,93.20
2018-03-30T18:44:06.867Z,93.30
2018-03-30T18:46:34.028Z,93.00
2018-03-30T18:49:01.217Z,93.30
2018-03-30T18:51:28.942Z,93.90
2018-03-30T18:53:56.832Z,93.40
2018-03-30T18:56:24.760Z,94.00
2018-03-30T18:58:51.941Z,93.50
2018-03-30T19:01:20.790Z,93.80
2018-03-30T19:03:47.959Z,93.80
2018-03-30T19:06:15.150Z,94.10
2018-03-30T19:08:43.085Z,94.00
2018-03-30T19:11:10.208Z,93.90
2018-03-30T19:13:37.365Z,94.10
2018-03-30T19:16:04.525Z,94.20
2018-03-30T19:18:31.696Z,93.90
2018-03-30T19:20:58.901Z,93.80
2018-03-30T19:23:26.044Z,93.60
2018-03-30T19:25:53.246Z,93.80
2018-03-30T19:28:21.389Z,93.70
2018-03-30T19:30:48.553Z,93.70
2018-03-30T19:33:15.677Z,93.70
2018-03-30T19:35:42.881Z,93.70
2018-03-30T19:38:10.150Z,93.90
2018-03-30T19:40:37.315Z,93.90
2018-03-30T19:43:04.492Z,93.80
2018-03-30T19:45:31.652Z,93.30
2018-03-30T19:47:58.782Z,93.30
2018-03-30T19:50:25.952Z,93.50
2018-03-30T19:52:53.193Z,93.20
2018-03-30T19:55:20.322Z,93.00
2018-03-30T19:57:48.387Z,93.20
2018-03-30T20:00:15.517Z,93.40
2018-03-30T20:02:42.698Z,93.50
2018-03-30T20:05:09.829Z,93.30
2018-03-30T20:07:37.255Z,93.40
2018-03-30T20:10:04.469Z,93.40
2018-03-30T20:12:31.612Z,92.80
2018-03-30T20:15:00.372Z,93.50
2018-03-30T20:17:28.732Z,93.00
2018-03-30T20:19:55.930Z,93.50
2018-03-30T20:22:24.219Z,93.60
2018-03-30T20:24:51.388Z,93.60
2018-03-30T20:27:19.397Z,93.40
2018-03-30T20:29:46.946Z,93.60
2018-03-30T20:32:14.211Z,93.50
2018-03-30T20:34:41.396Z,93.70
2018-03-30T20:37:08.573Z,93.40
2018-03-30T20:39:35.957Z,93.70
2018-03-30T20:42:04.686Z,93.80
2018-03-30T20:44:36.699Z,93.40
2018-03-30T20:47:10.082Z,93.10
2018-03-30T20:49:41.906Z,94.00
2018-03-30T20:52:10.080Z,93.50
2018-03-30T20:54:37.971Z,94.20
2018-03-30T20:57:05.133Z,94.20
2018-03-30T20:59:32.653Z,94.10
2018-03-30T21:02:00.876Z,93.50
2018-03-30T21:04:28.444Z,93.60
2018-03-30T21:06:55.721Z,93.90
2018-03-30T21:09:23.653Z,93.70
2018-03-30T21:11:50.980Z,93.70
2018-03-30T21:14:18.138Z,93.70
2018-03-30T21:16:45.266Z,93.60
2018-03-30T21:19:12.454Z,93.30
2018-03-30T21:21:39.908Z,93.40
2018-03-30T21:24:07.043Z,93.90
2018-03-30T21:26:34.417Z,93.50
2018-03-30T21:29:01.554Z,93.70
2018-03-30T21:31:28.688Z,93.60
2018-03-30T21:33:55.857Z,93.90
2018-03-30T21:36:22.986Z,93.70
2018-03-30T21:38:50.144Z,93.60
2018-03-30T21:41:17.623Z,93.40
2018-03-30T21:43:44.785Z,93.60
2018-03-30T21:46:11.913Z,94.10
2018-03-30T21:48:39.076Z,93.60
2018-03-30T21:51:06.214Z,93.60
2018-03-30T21:53:33.378Z,93.10
2018-03-30T21:56:00.825Z,93.70
2018-03-30T21:58:28.021Z,93.30
2018-03-30T22:00:55.749Z,94.10
2018-03-30T22:03:23.699Z,94.00
2018-03-30T22:05:50.825Z,93.90
2018-03-30T22:08:17.973Z,94.10
2018-03-30T22:10:45.150Z,93.90
2018-03-30T22:13:12.390Z,94.40
2018-03-30T22:15:39.520Z,94.50
2018-03-30T22:18:07.965Z,94.90
2018-03-30T22:20:35.093Z,95.20
2018-03-30T22:23:02.289Z,95.60
2018-03-30T22:25:29.421Z,96.40
2018-03-30T22:27:56.592Z,96.50
2018-03-30T22:30:23.754Z,96.70
2018-03-30T22:32:50.917Z,96.90
2018-03-30T22:35:18.040Z,96.90
2018-03-30T22:37:45.478Z,97.20
2018-03-30T22:40:12.613Z,97.00
2018-03-30T22:42:39.733Z,97.20
2018-03-30T22:45:07.778Z,97.40
2018-03-30T22:47:34.914Z,97.50
2018-03-30T22:50:02.085Z,97.50
2018-03-30T22:52:29.209Z,98.10
2018-03-30T22:54:56.677Z,98.00
2018-03-30T22:57:23.845Z,98.20
2018-03-30T22:59:50.977Z,98.30
2018-03-30T23:02:18.141Z,99.00
2018-03-30T23:04:47.054Z,99.40
2018-03-30T23:07:14.181Z,99.90
2018-03-30T23:09:41.304Z,99.90
2018-03-30T23:12:08.473Z,99.90
2018-03-30T23:14:35.610Z,99.90
2018-03-30T23:17:02.860Z,99.90
2018-03-30T23:19:29.989Z,99.90
2018-03-30T23:21:57.151Z,99.90
2018-03-30T23:24:24.282Z,99.90
2018-03-30T23:26:51.471Z,99.90
2018-03-30T23:29:18.597Z,99.90
2018-03-30T23:31:45.722Z,99.90
2018-03-30T23:34:12.896Z,99.90
2018-03-30T23:36:40.034Z,99.80
2018-03-30T23:39:07.177Z,99.90
2018-03-30T23:41:34.528Z,99.90
2018-03-30T23:44:01.654Z,99.90
2018-03-30T23:46:28.816Z,99.90
2018-03-30T23:48:56.740Z,99.90
2018-03-30T23:51:23.900Z,99.90
2018-03-30T23:53:51.505Z,99.80
2018-03-30T23:56:18.684Z,99.90
2018-03-30T23:58:45.809Z,99.80
